KJEF/JEF METAR and TAF weather

Enter ICAO airport designator
Station Type Date Time Source
KJEF METAR 2019/02/23 00:53 UTC NOAA

KJEF 230053Z 10010KT 10SM -RA BKN013 OVC018 04/02 A3013 RMK AO2 RAB47 SLP198 P0000 T00440017


Station Type Date Time Source
KJEF Decoded METAR 2019/02/23 00:53 UTC NOAA

JEFFERSON CITY MEMORIAL AIRPORT , MO, United States (KJEF) 38-36N 92-09W 168M
Feb 22, 2019 - 07:53 PM EST / 2019.02.23 0053 UTC
Wind: from the E (100 degrees) at 12 MPH (10 KT):0
Visibility: 10 mile(s):0
Sky conditions: overcast
Weather: light rain
Precipitation last hour: A trace
Temperature: 39.9 F (4.4 C)
Dew Point: 35.1 F (1.7 C)
Relative Humidity: 82%
Pressure (altimeter): 30.13 in. Hg (1020 hPa)
ob: KJEF 230053Z 10010KT 10SM -RA BKN013 OVC018 04/02 A3013 RMK AO2 RAB47 SLP198 P0000 T00440017
cycle: 1

Station Type Date Time Source
KJEF TAF UTC NOAA

Error!


Example: see airport list